sensor_id;sensor_type;location;lat;lon;timestamp;P1;durP1;ratioP1;P2;durP2;ratioP2
76477;SDS011;65309;49.790;18.972;2023-05-10T00:02:57;2.30;;;1.63;;
76477;SDS011;65309;49.790;18.972;2023-05-10T00:07:59;2.78;;;1.65;;
76477;SDS011;65309;49.790;18.972;2023-05-10T00:13:01;3.45;;;1.65;;
76477;SDS011;65309;49.790;18.972;2023-05-10T00:18:05;2.85;;;1.65;;
76477;SDS011;65309;49.790;18.972;2023-05-10T00:23:07;3.60;;;2.10;;
76477;SDS011;65309;49.790;18.972;2023-05-10T00:28:09;2.15;;;1.60;;
76477;SDS011;65309;49.790;18.972;2023-05-10T00:33:12;2.65;;;1.58;;
76477;SDS011;65309;49.790;18.972;2023-05-10T00:38:14;3.83;;;1.73;;
76477;SDS011;65309;49.790;18.972;2023-05-10T00:43:16;1.92;;;1.30;;
76477;SDS011;65309;49.790;18.972;2023-05-10T00:48:20;2.17;;;1.70;;
76477;SDS011;65309;49.790;18.972;2023-05-10T00:53:23;2.78;;;1.85;;
76477;SDS011;65309;49.790;18.972;2023-05-10T00:58:26;2.53;;;1.67;;
76477;SDS011;65309;49.790;18.972;2023-05-10T01:03:31;2.42;;;1.80;;
76477;SDS011;65309;49.790;18.972;2023-05-10T01:08:33;2.75;;;1.67;;
76477;SDS011;65309;49.790;18.972;2023-05-10T01:13:36;2.53;;;1.70;;
76477;SDS011;65309;49.790;18.972;2023-05-10T01:18:42;2.28;;;1.60;;
76477;SDS011;65309;49.790;18.972;2023-05-10T01:23:50;2.40;;;1.98;;
76477;SDS011;65309;49.790;18.972;2023-05-10T01:29:11;3.42;;;1.88;;
76477;SDS011;65309;49.790;18.972;2023-05-10T01:34:23;2.58;;;1.83;;
76477;SDS011;65309;49.790;18.972;2023-05-10T01:39:30;2.88;;;1.98;;
76477;SDS011;65309;49.790;18.972;2023-05-10T01:44:38;2.17;;;1.50;;
76477;SDS011;65309;49.790;18.972;2023-05-10T01:49:47;2.72;;;2.00;;
76477;SDS011;65309;49.790;18.972;2023-05-10T01:54:53;5.15;;;2.08;;
76477;SDS011;65309;49.790;18.972;2023-05-10T01:59:57;2.97;;;1.85;;
76477;SDS011;65309;49.790;18.972;2023-05-10T02:05:04;4.07;;;2.28;;
76477;SDS011;65309;49.790;18.972;2023-05-10T02:10:08;3.13;;;1.92;;
76477;SDS011;65309;49.790;18.972;2023-05-10T02:15:11;6.00;;;2.30;;
76477;SDS011;65309;49.790;18.972;2023-05-10T02:20:17;3.72;;;2.20;;
76477;SDS011;65309;49.790;18.972;2023-05-10T02:25:21;2.70;;;1.77;;
76477;SDS011;65309;49.790;18.972;2023-05-10T02:30:24;2.33;;;1.80;;
76477;SDS011;65309;49.790;18.972;2023-05-10T02:35:29;2.75;;;1.75;;
76477;SDS011;65309;49.790;18.972;2023-05-10T02:40:32;2.85;;;1.90;;
76477;SDS011;65309;49.790;18.972;2023-05-10T02:45:35;3.17;;;2.10;;
76477;SDS011;65309;49.790;18.972;2023-05-10T02:50:42;4.13;;;2.25;;
76477;SDS011;65309;49.790;18.972;2023-05-10T02:55:50;4.18;;;2.38;;
76477;SDS011;65309;49.790;18.972;2023-05-10T03:00:54;6.20;;;2.22;;
76477;SDS011;65309;49.790;18.972;2023-05-10T03:05:57;3.78;;;2.20;;
76477;SDS011;65309;49.790;18.972;2023-05-10T03:11:10;2.42;;;1.70;;
76477;SDS011;65309;49.790;18.972;2023-05-10T03:16:24;5.93;;;2.47;;
76477;SDS011;65309;49.790;18.972;2023-05-10T03:21:32;3.88;;;2.30;;
76477;SDS011;65309;49.790;18.972;2023-05-10T03:26:36;3.88;;;2.30;;
76477;SDS011;65309;49.790;18.972;2023-05-10T03:31:40;2.90;;;1.70;;
76477;SDS011;65309;49.790;18.972;2023-05-10T03:36:43;3.25;;;1.95;;
76477;SDS011;65309;49.790;18.972;2023-05-10T03:41:45;2.72;;;2.05;;
76477;SDS011;65309;49.790;18.972;2023-05-10T03:46:47;3.28;;;2.00;;
76477;SDS011;65309;49.790;18.972;2023-05-10T03:51:51;5.32;;;2.13;;
76477;SDS011;65309;49.790;18.972;2023-05-10T03:56:53;3.95;;;2.15;;
76477;SDS011;65309;49.790;18.972;2023-05-10T04:01:55;2.10;;;1.48;;
76477;SDS011;65309;49.790;18.972;2023-05-10T04:06:58;3.90;;;2.33;;
76477;SDS011;65309;49.790;18.972;2023-05-10T04:12:00;2.55;;;1.60;;
76477;SDS011;65309;49.790;18.972;2023-05-10T04:17:03;3.33;;;2.30;;
76477;SDS011;65309;49.790;18.972;2023-05-10T04:22:07;3.70;;;2.03;;
76477;SDS011;65309;49.790;18.972;2023-05-10T04:27:09;2.55;;;1.73;;
76477;SDS011;65309;49.790;18.972;2023-05-10T04:32:11;2.83;;;2.20;;
76477;SDS011;65309;49.790;18.972;2023-05-10T04:37:14;3.67;;;2.22;;
76477;SDS011;65309;49.790;18.972;2023-05-10T04:42:16;3.63;;;1.88;;
76477;SDS011;65309;49.790;18.972;2023-05-10T04:47:18;3.95;;;1.83;;
76477;SDS011;65309;49.790;18.972;2023-05-10T04:52:22;6.70;;;2.08;;
76477;SDS011;65309;49.790;18.972;2023-05-10T04:57:24;4.32;;;1.67;;
76477;SDS011;65309;49.790;18.972;2023-05-10T05:02:26;2.30;;;1.90;;
76477;SDS011;65309;49.790;18.972;2023-05-10T05:07:29;3.13;;;1.92;;
76477;SDS011;65309;49.790;18.972;2023-05-10T05:12:32;3.80;;;1.90;;
76477;SDS011;65309;49.790;18.972;2023-05-10T05:17:34;3.17;;;2.13;;
76477;SDS011;65309;49.790;18.972;2023-05-10T05:22:37;3.20;;;1.80;;
76477;SDS011;65309;49.790;18.972;2023-05-10T05:27:39;3.15;;;1.83;;
76477;SDS011;65309;49.790;18.972;2023-05-10T05:32:41;2.00;;;1.50;;
76477;SDS011;65309;49.790;18.972;2023-05-10T05:37:45;4.30;;;1.85;;
76477;SDS011;65309;49.790;18.972;2023-05-10T05:42:47;2.90;;;1.83;;
76477;SDS011;65309;49.790;18.972;2023-05-10T05:47:49;2.72;;;1.80;;
76477;SDS011;65309;49.790;18.972;2023-05-10T05:52:52;2.33;;;1.50;;
76477;SDS011;65309;49.790;18.972;2023-05-10T05:57:54;2.40;;;1.77;;
76477;SDS011;65309;49.790;18.972;2023-05-10T06:02:56;1.98;;;1.33;;
76477;SDS011;65309;49.790;18.972;2023-05-10T06:08:00;2.97;;;1.98;;
76477;SDS011;65309;49.790;18.972;2023-05-10T06:13:02;3.03;;;1.58;;
76477;SDS011;65309;49.790;18.972;2023-05-10T06:18:04;3.08;;;2.42;;
76477;SDS011;65309;49.790;18.972;2023-05-10T06:28:10;3.17;;;2.10;;
76477;SDS011;65309;49.790;18.972;2023-05-10T06:33:13;4.03;;;2.28;;
76477;SDS011;65309;49.790;18.972;2023-05-10T06:38:16;3.25;;;2.35;;
76477;SDS011;65309;49.790;18.972;2023-05-10T06:43:18;3.25;;;2.10;;
76477;SDS011;65309;49.790;18.972;2023-05-10T06:48:20;3.17;;;2.30;;
76477;SDS011;65309;49.790;18.972;2023-05-10T06:53:23;3.88;;;2.40;;
76477;SDS011;65309;49.790;18.972;2023-05-10T06:58:25;4.38;;;2.70;;
76477;SDS011;65309;49.790;18.972;2023-05-10T07:03:27;3.45;;;2.10;;
76477;SDS011;65309;49.790;18.972;2023-05-10T07:08:31;4.50;;;2.47;;
76477;SDS011;65309;49.790;18.972;2023-05-10T07:13:33;2.92;;;1.80;;
76477;SDS011;65309;49.790;18.972;2023-05-10T07:18:36;3.72;;;2.33;;
76477;SDS011;65309;49.790;18.972;2023-05-10T07:23:39;5.80;;;2.38;;
76477;SDS011;65309;49.790;18.972;2023-05-10T07:28:44;3.13;;;1.90;;
76477;SDS011;65309;49.790;18.972;2023-05-10T07:33:47;3.40;;;2.25;;
76477;SDS011;65309;49.790;18.972;2023-05-10T07:38:50;6.03;;;2.80;;
76477;SDS011;65309;49.790;18.972;2023-05-10T07:43:52;3.92;;;2.05;;
76477;SDS011;65309;49.790;18.972;2023-05-10T07:48:54;5.40;;;2.47;;
76477;SDS011;65309;49.790;18.972;2023-05-10T07:53:58;3.90;;;2.35;;
76477;SDS011;65309;49.790;18.972;2023-05-10T07:59:00;3.20;;;2.42;;
76477;SDS011;65309;49.790;18.972;2023-05-10T08:04:03;5.70;;;2.80;;
76477;SDS011;65309;49.790;18.972;2023-05-10T08:09:07;3.33;;;1.75;;
76477;SDS011;65309;49.790;18.972;2023-05-10T08:14:09;4.55;;;2.38;;
76477;SDS011;65309;49.790;18.972;2023-05-10T08:19:11;4.70;;;2.85;;
76477;SDS011;65309;49.790;18.972;2023-05-10T08:24:14;7.32;;;2.50;;
76477;SDS011;65309;49.790;18.972;2023-05-10T08:29:16;4.05;;;2.53;;
76477;SDS011;65309;49.790;18.972;2023-05-10T08:34:18;4.13;;;2.42;;
76477;SDS011;65309;49.790;18.972;2023-05-10T08:39:22;3.95;;;2.38;;
76477;SDS011;65309;49.790;18.972;2023-05-10T08:44:32;3.08;;;2.03;;
76477;SDS011;65309;49.790;18.972;2023-05-10T08:49:35;5.03;;;2.58;;
76477;SDS011;65309;49.790;18.972;2023-05-10T08:54:40;3.55;;;2.60;;
76477;SDS011;65309;49.790;18.972;2023-05-10T08:59:43;5.05;;;2.22;;
76477;SDS011;65309;49.790;18.972;2023-05-10T09:04:45;2.97;;;2.15;;
76477;SDS011;65309;49.790;18.972;2023-05-10T09:09:48;2.55;;;2.08;;
76477;SDS011;65309;49.790;18.972;2023-05-10T09:14:51;5.03;;;2.85;;
76477;SDS011;65309;49.790;18.972;2023-05-10T09:19:58;3.83;;;2.38;;
76477;SDS011;65309;49.790;18.972;2023-05-10T09:25:06;2.72;;;2.20;;
76477;SDS011;65309;49.790;18.972;2023-05-10T09:30:10;3.45;;;1.98;;
76477;SDS011;65309;49.790;18.972;2023-05-10T09:35:17;4.72;;;2.70;;
76477;SDS011;65309;49.790;18.972;2023-05-10T09:40:22;4.45;;;2.42;;
76477;SDS011;65309;49.790;18.972;2023-05-10T09:45:26;4.35;;;2.47;;
76477;SDS011;65309;49.790;18.972;2023-05-10T09:50:30;3.90;;;2.13;;
76477;SDS011;65309;49.790;18.972;2023-05-10T09:55:40;2.90;;;1.90;;
76477;SDS011;65309;49.790;18.972;2023-05-10T10:00:45;2.95;;;1.90;;
76477;SDS011;65309;49.790;18.972;2023-05-10T10:05:49;2.47;;;1.80;;
76477;SDS011;65309;49.790;18.972;2023-05-10T10:10:53;3.13;;;1.90;;
76477;SDS011;65309;49.790;18.972;2023-05-10T10:15:55;3.53;;;2.00;;
76477;SDS011;65309;49.790;18.972;2023-05-10T10:26:01;3.05;;;2.10;;
76477;SDS011;65309;49.790;18.972;2023-05-10T10:31:15;5.28;;;2.00;;
76477;SDS011;65309;49.790;18.972;2023-05-10T10:36:22;3.33;;;2.20;;
76477;SDS011;65309;49.790;18.972;2023-05-10T10:46:31;2.50;;;1.90;;
76477;SDS011;65309;49.790;18.972;2023-05-10T10:51:36;6.13;;;2.40;;
76477;SDS011;65309;49.790;18.972;2023-05-10T10:56:40;3.45;;;2.13;;
76477;SDS011;65309;49.790;18.972;2023-05-10T11:01:43;3.03;;;2.38;;
76477;SDS011;65309;49.790;18.972;2023-05-10T11:06:46;4.00;;;2.88;;
76477;SDS011;65309;49.790;18.972;2023-05-10T11:16:52;9.57;;;2.60;;
76477;SDS011;65309;49.790;18.972;2023-05-10T11:27:16;4.95;;;2.15;;
76477;SDS011;65309;49.790;18.972;2023-05-10T11:32:18;4.00;;;2.42;;
76477;SDS011;65309;49.790;18.972;2023-05-10T11:37:21;3.80;;;2.33;;
76477;SDS011;65309;49.790;18.972;2023-05-10T11:42:24;4.18;;;2.35;;
76477;SDS011;65309;49.790;18.972;2023-05-10T11:47:26;4.00;;;2.28;;
76477;SDS011;65309;49.790;18.972;2023-05-10T11:52:28;3.10;;;2.03;;
76477;SDS011;65309;49.790;18.972;2023-05-10T11:57:32;8.40;;;2.30;;
76477;SDS011;65309;49.790;18.972;2023-05-10T12:02:34;3.25;;;2.03;;
76477;SDS011;65309;49.790;18.972;2023-05-10T12:07:36;3.55;;;2.28;;
76477;SDS011;65309;49.790;18.972;2023-05-10T12:12:40;3.03;;;2.13;;
76477;SDS011;65309;49.790;18.972;2023-05-10T12:17:46;3.00;;;2.05;;
76477;SDS011;65309;49.790;18.972;2023-05-10T12:22:51;2.47;;;1.90;;
76477;SDS011;65309;49.790;18.972;2023-05-10T12:27:57;3.92;;;2.33;;
76477;SDS011;65309;49.790;18.972;2023-05-10T12:33:02;3.10;;;2.08;;
76477;SDS011;65309;49.790;18.972;2023-05-10T12:38:22;2.53;;;1.90;;
76477;SDS011;65309;49.790;18.972;2023-05-10T12:43:28;3.88;;;2.50;;
76477;SDS011;65309;49.790;18.972;2023-05-10T12:48:30;3.58;;;2.10;;
76477;SDS011;65309;49.790;18.972;2023-05-10T12:53:33;3.20;;;1.73;;
76477;SDS011;65309;49.790;18.972;2023-05-10T13:03:38;2.67;;;2.17;;
76477;SDS011;65309;49.790;18.972;2023-05-10T13:13:43;3.72;;;1.80;;
76477;SDS011;65309;49.790;18.972;2023-05-10T13:18:45;2.60;;;1.80;;
76477;SDS011;65309;49.790;18.972;2023-05-10T13:28:50;3.13;;;1.35;;
76477;SDS011;65309;49.790;18.972;2023-05-10T13:33:53;2.17;;;1.60;;
76477;SDS011;65309;49.790;18.972;2023-05-10T13:43:58;2.97;;;1.90;;
76477;SDS011;65309;49.790;18.972;2023-05-10T13:49:01;2.80;;;1.50;;
76477;SDS011;65309;49.790;18.972;2023-05-10T13:54:03;2.00;;;1.70;;
76477;SDS011;65309;49.790;18.972;2023-05-10T13:59:07;1.80;;;1.50;;
76477;SDS011;65309;49.790;18.972;2023-05-10T14:04:09;2.40;;;1.77;;
76477;SDS011;65309;49.790;18.972;2023-05-10T14:09:12;2.03;;;1.52;;
76477;SDS011;65309;49.790;18.972;2023-05-10T14:14:15;3.65;;;2.13;;
76477;SDS011;65309;49.790;18.972;2023-05-10T14:19:17;2.42;;;1.77;;
76477;SDS011;65309;49.790;18.972;2023-05-10T14:24:20;11.13;;;1.73;;
76477;SDS011;65309;49.790;18.972;2023-05-10T14:29:23;1.98;;;1.25;;
76477;SDS011;65309;49.790;18.972;2023-05-10T14:34:25;2.33;;;1.67;;
76477;SDS011;65309;49.790;18.972;2023-05-10T14:39:27;2.03;;;1.70;;
76477;SDS011;65309;49.790;18.972;2023-05-10T14:44:33;2.65;;;1.38;;
76477;SDS011;65309;49.790;18.972;2023-05-10T14:49:35;2.50;;;1.67;;
76477;SDS011;65309;49.790;18.972;2023-05-10T14:59:40;1.40;;;1.13;;
76477;SDS011;65309;49.790;18.972;2023-05-10T15:04:43;2.88;;;1.50;;
76477;SDS011;65309;49.790;18.972;2023-05-10T15:09:45;2.80;;;1.77;;
76477;SDS011;65309;49.790;18.972;2023-05-10T15:14:49;2.78;;;1.75;;
76477;SDS011;65309;49.790;18.972;2023-05-10T15:19:51;2.58;;;1.50;;
76477;SDS011;65309;49.790;18.972;2023-05-10T15:24:53;2.15;;;1.52;;
76477;SDS011;65309;49.790;18.972;2023-05-10T15:29:56;2.33;;;1.60;;
76477;SDS011;65309;49.790;18.972;2023-05-10T15:35:00;3.90;;;1.88;;
76477;SDS011;65309;49.790;18.972;2023-05-10T15:40:04;2.65;;;1.65;;
76477;SDS011;65309;49.790;18.972;2023-05-10T15:45:10;4.60;;;1.70;;
76477;SDS011;65309;49.790;18.972;2023-05-10T15:50:13;2.50;;;1.70;;
76477;SDS011;65309;49.790;18.972;2023-05-10T15:55:16;2.53;;;1.60;;
76477;SDS011;65309;49.790;18.972;2023-05-10T16:00:20;6.25;;;1.85;;
76477;SDS011;65309;49.790;18.972;2023-05-10T16:05:22;3.05;;;1.67;;
76477;SDS011;65309;49.790;18.972;2023-05-10T16:15:28;5.50;;;2.10;;
76477;SDS011;65309;49.790;18.972;2023-05-10T16:20:31;2.33;;;1.52;;
76477;SDS011;65309;49.790;18.972;2023-05-10T16:25:33;2.38;;;1.63;;
76477;SDS011;65309;49.790;18.972;2023-05-10T16:30:37;3.08;;;2.00;;
76477;SDS011;65309;49.790;18.972;2023-05-10T16:35:40;6.10;;;2.08;;
76477;SDS011;65309;49.790;18.972;2023-05-10T16:40:42;6.18;;;1.80;;
76477;SDS011;65309;49.790;18.972;2023-05-10T16:45:45;2.63;;;1.65;;
76477;SDS011;65309;49.790;18.972;2023-05-10T16:50:47;2.08;;;1.70;;
76477;SDS011;65309;49.790;18.972;2023-05-10T16:55:49;17.70;;;2.97;;
76477;SDS011;65309;49.790;18.972;2023-05-10T17:00:53;2.33;;;1.75;;
76477;SDS011;65309;49.790;18.972;2023-05-10T17:05:55;4.50;;;2.08;;
76477;SDS011;65309;49.790;18.972;2023-05-10T17:10:59;5.30;;;2.25;;
76477;SDS011;65309;49.790;18.972;2023-05-10T17:16:03;3.13;;;2.35;;
76477;SDS011;65309;49.790;18.972;2023-05-10T17:21:05;2.95;;;2.15;;
76477;SDS011;65309;49.790;18.972;2023-05-10T17:26:07;2.67;;;1.80;;
76477;SDS011;65309;49.790;18.972;2023-05-10T17:31:11;3.38;;;1.90;;
76477;SDS011;65309;49.790;18.972;2023-05-10T17:36:13;3.35;;;1.58;;
76477;SDS011;65309;49.790;18.972;2023-05-10T17:41:15;2.30;;;1.80;;
76477;SDS011;65309;49.790;18.972;2023-05-10T17:51:21;2.50;;;1.70;;
76477;SDS011;65309;49.790;18.972;2023-05-10T17:56:23;2.70;;;1.83;;
76477;SDS011;65309;49.790;18.972;2023-05-10T18:01:27;2.85;;;2.20;;
76477;SDS011;65309;49.790;18.972;2023-05-10T18:06:29;9.32;;;4.68;;
76477;SDS011;65309;49.790;18.972;2023-05-10T18:11:33;2.35;;;1.75;;
76477;SDS011;65309;49.790;18.972;2023-05-10T18:16:36;2.58;;;1.73;;
76477;SDS011;65309;49.790;18.972;2023-05-10T18:21:38;2.67;;;1.88;;
76477;SDS011;65309;49.790;18.972;2023-05-10T18:26:41;2.95;;;2.03;;
76477;SDS011;65309;49.790;18.972;2023-05-10T18:31:44;3.05;;;1.77;;
76477;SDS011;65309;49.790;18.972;2023-05-10T18:36:47;3.55;;;1.92;;
76477;SDS011;65309;49.790;18.972;2023-05-10T18:41:49;2.28;;;1.70;;
76477;SDS011;65309;49.790;18.972;2023-05-10T18:46:52;2.22;;;1.83;;
76477;SDS011;65309;49.790;18.972;2023-05-10T18:51:54;3.88;;;1.77;;
76477;SDS011;65309;49.790;18.972;2023-05-10T18:56:57;3.70;;;2.08;;
76477;SDS011;65309;49.790;18.972;2023-05-10T19:02:00;1.75;;;1.42;;
76477;SDS011;65309;49.790;18.972;2023-05-10T19:07:03;3.67;;;1.73;;
76477;SDS011;65309;49.790;18.972;2023-05-10T19:12:05;1.92;;;1.52;;
76477;SDS011;65309;49.790;18.972;2023-05-10T19:17:08;3.72;;;1.85;;
76477;SDS011;65309;49.790;18.972;2023-05-10T19:22:10;3.50;;;2.10;;
76477;SDS011;65309;49.790;18.972;2023-05-10T19:27:12;2.60;;;1.85;;
76477;SDS011;65309;49.790;18.972;2023-05-10T19:32:18;4.20;;;2.70;;
76477;SDS011;65309;49.790;18.972;2023-05-10T19:37:20;2.78;;;2.10;;
76477;SDS011;65309;49.790;18.972;2023-05-10T19:42:22;3.78;;;2.40;;
76477;SDS011;65309;49.790;18.972;2023-05-10T19:47:25;3.80;;;2.35;;
76477;SDS011;65309;49.790;18.972;2023-05-10T19:52:27;2.47;;;1.80;;
76477;SDS011;65309;49.790;18.972;2023-05-10T19:57:29;2.70;;;1.90;;
76477;SDS011;65309;49.790;18.972;2023-05-10T20:02:32;4.78;;;2.28;;
76477;SDS011;65309;49.790;18.972;2023-05-10T20:07:35;3.28;;;1.90;;
76477;SDS011;65309;49.790;18.972;2023-05-10T20:12:37;2.78;;;1.85;;
76477;SDS011;65309;49.790;18.972;2023-05-10T20:17:41;2.67;;;1.80;;
76477;SDS011;65309;49.790;18.972;2023-05-10T20:22:43;3.13;;;2.03;;
76477;SDS011;65309;49.790;18.972;2023-05-10T20:27:45;3.50;;;1.67;;
76477;SDS011;65309;49.790;18.972;2023-05-10T20:32:48;3.85;;;2.15;;
76477;SDS011;65309;49.790;18.972;2023-05-10T20:37:51;4.03;;;1.92;;
76477;SDS011;65309;49.790;18.972;2023-05-10T20:42:53;3.78;;;2.05;;
76477;SDS011;65309;49.790;18.972;2023-05-10T20:47:56;2.63;;;1.85;;
76477;SDS011;65309;49.790;18.972;2023-05-10T20:52:59;3.88;;;2.38;;
76477;SDS011;65309;49.790;18.972;2023-05-10T20:58:01;5.80;;;3.10;;
76477;SDS011;65309;49.790;18.972;2023-05-10T21:03:07;6.53;;;3.55;;
76477;SDS011;65309;49.790;18.972;2023-05-10T21:08:09;13.68;;;5.47;;
76477;SDS011;65309;49.790;18.972;2023-05-10T21:13:11;10.30;;;4.70;;
76477;SDS011;65309;49.790;18.972;2023-05-10T21:18:14;9.02;;;4.20;;
76477;SDS011;65309;49.790;18.972;2023-05-10T21:23:16;4.28;;;2.72;;
76477;SDS011;65309;49.790;18.972;2023-05-10T21:28:18;4.90;;;3.17;;
76477;SDS011;65309;49.790;18.972;2023-05-10T21:33:21;4.40;;;3.17;;
76477;SDS011;65309;49.790;18.972;2023-05-10T21:38:25;3.92;;;2.30;;
76477;SDS011;65309;49.790;18.972;2023-05-10T21:43:28;4.25;;;3.00;;
76477;SDS011;65309;49.790;18.972;2023-05-10T21:48:31;6.30;;;3.20;;
76477;SDS011;65309;49.790;18.972;2023-05-10T21:53:34;4.57;;;2.55;;
76477;SDS011;65309;49.790;18.972;2023-05-10T21:58:36;5.05;;;2.80;;
76477;SDS011;65309;49.790;18.972;2023-05-10T22:03:40;4.68;;;3.17;;
76477;SDS011;65309;49.790;18.972;2023-05-10T22:08:42;4.13;;;2.88;;
76477;SDS011;65309;49.790;18.972;2023-05-10T22:13:44;3.88;;;2.40;;
76477;SDS011;65309;49.790;18.972;2023-05-10T22:18:47;5.22;;;2.30;;
76477;SDS011;65309;49.790;18.972;2023-05-10T22:23:49;4.80;;;2.40;;
76477;SDS011;65309;49.790;18.972;2023-05-10T22:28:52;4.53;;;2.20;;
76477;SDS011;65309;49.790;18.972;2023-05-10T22:33:55;4.20;;;2.05;;
76477;SDS011;65309;49.790;18.972;2023-05-10T22:38:57;3.47;;;2.28;;
76477;SDS011;65309;49.790;18.972;2023-05-10T22:43:59;2.92;;;1.80;;
76477;SDS011;65309;49.790;18.972;2023-05-10T22:49:03;3.15;;;2.35;;
76477;SDS011;65309;49.790;18.972;2023-05-10T22:54:05;3.10;;;2.15;;
76477;SDS011;65309;49.790;18.972;2023-05-10T22:59:07;4.38;;;2.60;;
76477;SDS011;65309;49.790;18.972;2023-05-10T23:04:11;4.40;;;2.10;;
76477;SDS011;65309;49.790;18.972;2023-05-10T23:09:13;3.17;;;2.28;;
76477;SDS011;65309;49.790;18.972;2023-05-10T23:14:15;3.53;;;2.33;;
76477;SDS011;65309;49.790;18.972;2023-05-10T23:19:18;4.97;;;2.17;;
76477;SDS011;65309;49.790;18.972;2023-05-10T23:24:20;4.13;;;2.30;;
76477;SDS011;65309;49.790;18.972;2023-05-10T23:29:22;2.63;;;1.85;;
76477;SDS011;65309;49.790;18.972;2023-05-10T23:34:28;6.13;;;2.00;;
76477;SDS011;65309;49.790;18.972;2023-05-10T23:39:30;2.55;;;1.92;;
76477;SDS011;65309;49.790;18.972;2023-05-10T23:44:32;4.03;;;2.13;;
76477;SDS011;65309;49.790;18.972;2023-05-10T23:49:35;6.13;;;1.77;;
76477;SDS011;65309;49.790;18.972;2023-05-10T23:54:38;2.63;;;1.90;;
76477;SDS011;65309;49.790;18.972;2023-05-10T23:59:40;2.40;;;1.98;;
